Terminal Aerodrome Forecast
Issued by NWS St Louis, MO

Home | Current Version | Previous Version | Graphics & Text | Print | Product List | Glossary On
Versions: 1 2 3 4 5 6 7 8 9 10 11 12 13 14 15 16 17 18 19 20 21 22
246
FTUS43 KLSX 211455 AAA
TAFSTL
TAF AMD
KSTL 211455Z 2115/2218 18008KT P6SM BKN250
     FM211800 17008KT P6SM FEW070=

USA.gov is the U.S. government's official web portal to all federal, state and local government web resources and services.